artspace.com alexa rank chart, artspace.com alexa rank daily changes

artspace.com alexa rank chart, artspace.com alexa rank daily changes

artspace.com
Actual rank:
172 082

RANK HISTORY

Date Rank Diff
2018/06/22 172 082 -73 929
2018/06/21 246 011 +145 100
2018/06/20 100 911 -49 422
2018/06/19 150 333 -26 228
2018/06/18 176 561 +24 925
2018/06/17 151 636 +72 241
2018/06/16 79 395 +13 170
2018/06/15 66 225 -6 843
2018/06/14 73 068 -127 960
2018/06/13 201 028 +101 663
2018/06/12 99 365 +15 479
2018/06/11 83 886 -80 732
2018/06/10 164 618 +62 175
2018/06/09 102 443 -31 122
2018/06/08 133 565 -19 935
2018/06/07 153 500 +47 588
2018/06/06 105 912 -26 874
2018/06/05 132 786 -20 189
2018/06/04 152 975 +62 379
2018/06/03 90 596 +38 743
2018/06/02 51 853 -24 634
2018/06/01 76 487 -45 950
2018/05/31 122 437 -39 602
2018/05/30 162 039 +60 247
2018/05/29 101 792 -42 815
2018/05/28 144 607 -40 399
2018/05/27 185 006 +78 335
2018/05/26 106 671 +8 076
2018/05/25 98 595 +10 031
2018/05/24 88 564 -43 775
2018/05/23 132 339 +48 027
2018/05/22 84 312 -211 459
2018/05/21 295 771 +94 971
2018/05/20 200 800 -57 602
2018/05/19 258 402 +125 617
2018/05/18 132 785 +45 284
2018/05/17 87 501 -3 280
2018/05/16 90 781 -41 592
2018/05/15 132 373 -50 938
2018/05/14 183 311 +65 474
2018/05/13 117 837 +10 293
2018/05/12 107 544 -1 394
2018/05/11 108 938 -101 949
2018/05/10 210 887 +129 811
2018/05/09 81 076 -66 047
2018/05/08 147 123 +57 668
2018/05/07 89 455 -69 968
2018/05/06 159 423 +79 962
2018/05/05 79 461 -17 283
2018/05/04 96 744 -48 801
2018/05/03 145 545 +48 895
2018/05/02 96 650 -41 080
2018/05/01 137 730 +59 434
2018/04/30 78 296 -53 316
2018/04/29 131 612 +4 417
2018/04/28 127 195 +9 247
2018/04/27 117 948 -34 065
2018/04/26 152 013 -44 406
2018/04/25 196 419 +16 504
2018/04/24 179 915 +61 967
2018/04/23 117 948

WIDGET FOR YOUR SITE

DOMAINS WITH THE NEAREST RANK

Domain Rank
hr.my 172 077
cogihot.info 172 078
sdilej.cz 172 079
melexis.com 172 080
benefitsatwork.be 172 081
artspace.com 172 082
taxfree.livejournal.com 172 083
sberbank.com 172 084
feelingsurf.fr 172 085
zenvpn.net 172 086
intim.lv 172 087

DOMAINS WITH THE NEAREST RANK BY TLD .com

Domain Rank
seehorsepenis.com 172 069
photomyne.com 172 071
hungryforever.com 172 073
fieldboom.com 172 074
melexis.com 172 080
artspace.com 172 082
sberbank.com 172 084
carealtyschool.com 172 090
myagentgenie.com 172 091
orrick.com 172 092
nengun.com 172 095